Time;durP1;ratioP1;P1;durP2;ratioP2;P2;SDS_P1;SDS_P2;PMS_P1;PMS_P2;Temp;Humidity;BMP_temperature;BMP_pressure;BME280_temperature;BME280_humidity;BME280_pressure;Samples;Min_cycle;Max_cycle;Signal;HPM_P1;HPM_P2
2023/08/25 00:01:31;;;;;;;11.20;7.95;;;;;;;26.09;54.54;101029.84;5022295;28;20115;-35
2023/08/25 00:03:58;;;;;;;11.60;6.95;;;;;;;26.08;54.63;101020.00;5022509;28;20060;-35
2023/08/25 00:06:24;;;;;;;11.57;7.25;;;;;;;26.08;54.55;101025.41;5022501;28;20060;-35
2023/08/25 00:08:51;;;;;;;10.00;7.32;;;;;;;26.07;54.76;101021.03;5023281;28;20045;-35
2023/08/25 00:11:17;;;;;;;10.38;7.07;;;;;;;26.06;54.49;101030.22;5025103;28;20047;-35
2023/08/25 00:13:44;;;;;;;9.63;6.57;;;;;;;26.06;54.48;101022.09;5023574;28;20133;-35
2023/08/25 00:16:11;;;;;;;9.90;7.07;;;;;;;26.06;54.55;101021.25;5025680;28;20356;-35
2023/08/25 00:18:37;;;;;;;10.15;7.45;;;;;;;26.06;54.43;101026.69;5021049;28;20045;-35
2023/08/25 00:21:04;;;;;;;9.70;7.10;;;;;;;26.05;54.63;101024.97;5022825;28;20041;-35
2023/08/25 00:23:31;;;;;;;11.82;7.10;;;;;;;26.04;54.64;101028.75;5018691;28;20085;-35
2023/08/25 00:25:57;;;;;;;9.35;6.97;;;;;;;26.04;54.65;101020.59;5021953;28;20058;-35
2023/08/25 00:28:24;;;;;;;9.15;6.95;;;;;;;26.03;54.63;101016.22;5022018;28;20391;-35
2023/08/25 00:30:51;;;;;;;9.82;6.50;;;;;;;26.01;54.59;101016.44;5022460;28;20139;-35
2023/08/25 00:33:18;;;;;;;10.68;7.20;;;;;;;26.01;54.51;101016.44;5027103;28;20056;-35
2023/08/25 00:35:44;;;;;;;8.25;6.38;;;;;;;26.01;54.43;101012.84;5023322;28;20441;-35
2023/08/25 00:38:11;;;;;;;9.75;6.55;;;;;;;26.00;54.47;101020.16;5022022;28;20042;-35
2023/08/25 00:40:38;;;;;;;9.32;6.82;;;;;;;25.99;54.59;101017.66;5023477;28;20441;-35
2023/08/25 00:43:04;;;;;;;9.60;6.63;;;;;;;25.98;54.37;101024.97;5020303;28;20402;-34
2023/08/25 00:45:35;;;;;;;7.78;5.93;;;;;;;25.98;54.54;101018.72;5025841;28;20129;-35
2023/08/25 00:48:02;;;;;;;8.40;6.25;;;;;;;25.96;54.51;101013.47;5024928;28;20134;-35
2023/08/25 00:50:29;;;;;;;8.18;6.25;;;;;;;25.96;54.39;101013.47;5027212;28;20077;-35
2023/08/25 00:52:57;;;;;;;8.60;6.53;;;;;;;25.95;54.57;101013.66;5011650;28;20984;-35
2023/08/25 00:55:24;;;;;;;9.40;6.22;;;;;;;25.95;54.46;101022.66;5020671;28;20057;-35
2023/08/25 00:57:50;;;;;;;7.78;6.10;;;;;;;25.93;54.54;101018.44;5026931;28;20414;-35
2023/08/25 01:00:18;;;;;;;8.30;5.95;;;;;;;25.93;54.45;101022.03;5021833;28;20225;-35
2023/08/25 01:02:45;;;;;;;8.93;6.55;;;;;;;25.92;54.64;101022.22;5025533;28;20099;-35
2023/08/25 01:05:12;;;;;;;7.50;5.85;;;;;;;25.91;54.66;101025.97;5026276;28;20157;-35
2023/08/25 01:07:38;;;;;;;9.00;6.50;;;;;;;25.89;54.53;101026.19;5020036;28;20049;-35
2023/08/25 01:10:06;;;;;;;9.18;5.78;;;;;;;25.89;54.55;101028.91;5022358;28;20056;-35
2023/08/25 01:12:42;;;;;;;7.75;5.80;;;;;;;25.88;54.43;101029.94;5022421;28;20385;-35
2023/08/25 01:15:16;;;;;;;9.40;5.85;;;;;;;25.87;54.48;101022.81;5023519;28;20516;-34
2023/08/25 01:17:59;;;;;;;7.65;5.75;;;;;;;25.84;54.66;101025.94;5019420;28;20318;-35
2023/08/25 01:20:26;;;;;;;7.07;5.40;;;;;;;25.87;54.53;101022.00;5018565;28;20081;-35
2023/08/25 01:22:59;;;;;;;7.07;5.45;;;;;;;25.85;54.38;101024.91;5020364;28;20111;-35
2023/08/25 01:25:30;;;;;;;8.80;5.93;;;;;;;25.84;54.49;101024.06;5020108;28;20628;-35
2023/08/25 01:27:58;;;;;;;8.02;5.88;;;;;;;25.84;54.59;101024.06;5020842;28;20096;-35
2023/08/25 01:30:27;;;;;;;6.65;5.28;;;;;;;25.84;54.61;101017.78;5021838;28;20135;-35
2023/08/25 01:32:54;;;;;;;7.25;5.78;;;;;;;25.83;54.47;101016.97;5018582;28;20112;-35
2023/08/25 01:36:03;;;;;;;7.60;5.45;;;;;;;25.80;54.38;101016.53;5024480;28;20049;-35
2023/08/25 01:38:34;;;;;;;9.07;5.80;;;;;;;25.82;54.48;101026.16;5009822;28;20425;-35
2023/08/25 01:41:30;;;;;;;8.45;5.90;;;;;;;25.80;54.51;101021.94;5022162;28;20050;-35
2023/08/25 01:44:01;;;;;;;7.32;5.40;;;;;;;25.81;54.69;101027.19;5018324;28;20119;-35
2023/08/25 01:46:30;;;;;;;7.20;5.18;;;;;;;25.80;54.50;101024.66;5019420;28;20092;-35
2023/08/25 01:48:59;;;;;;;10.55;5.93;;;;;;;25.80;54.50;101019.22;5021655;28;20045;-35
2023/08/25 01:51:28;;;;;;;7.50;5.68;;;;;;;25.80;54.29;101013.81;5021860;28;20052;-35
2023/08/25 01:53:55;;;;;;;6.97;5.22;;;;;;;25.77;54.66;101012.34;5019308;28;20057;-35
2023/08/25 01:56:23;;;;;;;8.27;5.75;;;;;;;25.77;54.56;101014.16;5021525;28;20056;-35
2023/08/25 01:58:50;;;;;;;7.75;5.25;;;;;;;25.76;54.46;101010.63;5020663;28;20129;-35
2023/08/25 02:01:16;;;;;;;7.43;5.00;;;;;;;25.76;54.45;101007.91;5019077;28;20049;-35
2023/08/25 02:03:43;;;;;;;7.50;5.18;;;;;;;25.75;54.74;101008.13;5023438;28;20060;-35
2023/08/25 02:06:11;;;;;;;8.90;5.80;;;;;;;25.75;54.25;101008.94;5027901;28;20136;-35
2023/08/25 02:08:38;;;;;;;6.55;5.00;;;;;;;25.75;54.51;101006.22;5024185;28;20045;-35
2023/08/25 02:11:04;;;;;;;7.70;5.82;;;;;;;25.75;54.53;101006.22;5025151;28;20112;-35
2023/08/25 02:13:31;;;;;;;8.05;5.18;;;;;;;25.74;54.32;101007.28;5027911;28;20129;-35
2023/08/25 02:15:58;;;;;;;8.50;5.53;;;;;;;25.74;54.55;100996.41;5024769;28;20467;-34
2023/08/25 02:18:25;;;;;;;8.80;5.88;;;;;;;25.75;54.24;101000.81;5021300;28;20158;-35
2023/08/25 02:20:51;;;;;;;7.30;5.53;;;;;;;25.73;54.54;100992.03;5025486;28;20057;-35
2023/08/25 02:23:18;;;;;;;6.40;5.05;;;;;;;25.74;54.32;100992.88;5021120;28;20099;-35
2023/08/25 02:25:44;;;;;;;6.15;4.82;;;;;;;25.74;54.39;100995.59;5021917;28;20057;-35
2023/08/25 02:28:11;;;;;;;7.18;5.25;;;;;;;25.74;54.32;100990.16;5024992;28;20137;-35
2023/08/25 02:30:38;;;;;;;6.80;5.15;;;;;;;25.73;54.59;100991.16;5023012;28;20046;-35
2023/08/25 02:33:04;;;;;;;8.73;5.57;;;;;;;25.73;54.52;100983.88;5026272;28;20102;-35
2023/08/25 02:35:31;;;;;;;8.23;5.95;;;;;;;25.73;54.37;100978.47;5026967;28;20111;-35
2023/08/25 02:38:00;;;;;;;6.72;5.15;;;;;;;25.72;54.59;100981.34;5023693;28;20136;-34
2023/08/25 02:40:28;;;;;;;6.90;5.38;;;;;;;25.72;54.40;100975.94;5025821;28;20380;-34
2023/08/25 02:42:56;;;;;;;6.32;4.78;;;;;;;25.71;54.55;100971.53;5023034;28;20050;-35
2023/08/25 02:45:26;;;;;;;7.22;5.18;;;;;;;25.70;54.31;100961.72;5032075;28;20177;-35
2023/08/25 02:47:53;;;;;;;7.35;5.35;;;;;;;25.69;54.55;100969.03;5027941;28;20049;-35
2023/08/25 02:50:22;;;;;;;8.25;5.32;;;;;;;25.69;54.60;100960.91;5023882;28;20057;-34
2023/08/25 02:52:48;;;;;;;6.47;4.80;;;;;;;25.68;54.53;100961.09;5022032;28;20422;-35
2023/08/25 02:55:18;;;;;;;7.82;5.35;;;;;;;25.68;54.38;100971.94;5024744;28;20081;-35
2023/08/25 02:57:46;;;;;;;6.20;4.63;;;;;;;25.68;54.46;100969.22;5025583;28;20050;-35
2023/08/25 03:00:17;;;;;;;7.00;5.20;;;;;;;25.68;54.56;100952.94;5026461;28;20076;-35
2023/08/25 03:02:43;;;;;;;10.43;4.93;;;;;;;25.67;54.66;100951.28;5027697;28;20445;-35
2023/08/25 03:05:11;;;;;;;5.88;4.55;;;;;;;25.67;54.57;100951.28;5029008;28;20115;-35
2023/08/25 03:07:37;;;;;;;6.38;5.13;;;;;;;25.66;54.36;100946.88;5025937;28;20088;-35
2023/08/25 03:10:04;;;;;;;7.75;5.18;;;;;;;25.66;54.38;100944.16;5027668;28;20164;-35
2023/08/25 03:12:31;;;;;;;5.90;4.60;;;;;;;25.65;54.66;100937.91;5024167;28;20104;-35
2023/08/25 03:14:57;;;;;;;6.70;4.75;;;;;;;25.64;54.32;100930.78;5026579;28;20073;-35
2023/08/25 03:17:25;;;;;;;5.85;4.57;;;;;;;25.64;54.45;100927.22;5022532;28;20139;-35
2023/08/25 03:19:52;;;;;;;6.53;4.53;;;;;;;25.64;54.39;100919.09;5023550;28;20049;-35
2023/08/25 03:22:18;;;;;;;6.50;4.70;;;;;;;25.64;54.36;100914.50;5018678;28;20077;-35
2023/08/25 03:24:45;;;;;;;8.20;5.22;;;;;;;25.62;54.36;100916.59;5023391;28;20149;-34
2023/08/25 03:27:11;;;;;;;6.65;5.00;;;;;;;25.63;54.37;100912.00;5024540;28;20111;-34
2023/08/25 03:29:42;;;;;;;5.82;4.47;;;;;;;25.62;54.62;100916.59;5022350;28;20496;-35
2023/08/25 03:32:08;;;;;;;6.78;5.00;;;;;;;25.62;54.44;100916.59;5021731;28;20060;-35
2023/08/25 03:34:35;;;;;;;7.53;5.18;;;;;;;25.62;54.30;100915.75;5022127;28;20054;-34
2023/08/25 03:37:03;;;;;;;6.05;4.68;;;;;;;25.62;54.66;100915.75;5022338;28;20041;-35
2023/08/25 03:39:29;;;;;;;6.32;4.45;;;;;;;25.60;54.37;100919.47;5021612;28;20369;-35
2023/08/25 03:41:56;;;;;;;6.13;4.75;;;;;;;25.62;54.33;100915.75;5025743;28;20080;-34
2023/08/25 03:44:23;;;;;;;5.53;4.30;;;;;;;25.59;54.39;100909.69;5022301;28;20085;-34
2023/08/25 03:46:49;;;;;;;6.75;5.00;;;;;;;25.60;54.19;100907.78;5023877;28;20957;-34
2023/08/25 03:49:16;;;;;;;8.30;4.95;;;;;;;25.59;54.12;100904.25;5022670;28;20045;-35
2023/08/25 03:51:42;;;;;;;6.25;4.70;;;;;;;25.60;54.33;100907.78;5021706;28;20081;-34
2023/08/25 03:54:11;;;;;;;6.00;4.60;;;;;;;25.59;54.60;100914.28;5022141;28;20049;-34
2023/08/25 03:56:38;;;;;;;7.00;4.90;;;;;;;25.59;54.49;100911.56;5021512;28;20108;-35
2023/08/25 03:59:04;;;;;;;7.78;4.78;;;;;;;25.59;54.63;100906.97;5022438;28;20049;-35
2023/08/25 04:01:31;;;;;;;6.18;4.50;;;;;;;25.58;54.73;100902.59;5022749;28;20346;-35
2023/08/25 04:03:57;;;;;;;8.07;4.80;;;;;;;25.58;54.20;100904.47;5020697;28;20100;-35
2023/08/25 04:06:24;;;;;;;5.28;4.20;;;;;;;25.57;54.61;100892.78;5019407;28;20085;-35
2023/08/25 04:08:51;;;;;;;5.22;4.10;;;;;;;25.57;54.42;100898.19;5023686;28;20160;-34
2023/08/25 04:11:17;;;;;;;6.50;4.47;;;;;;;25.56;54.45;100895.66;5027016;28;20053;-35
2023/08/25 04:13:44;;;;;;;5.90;4.43;;;;;;;25.57;54.46;100892.78;5023118;28;20152;-35
2023/08/25 04:16:11;;;;;;;6.95;4.25;;;;;;;25.57;54.46;100897.38;5026497;28;20049;-34
2023/08/25 04:18:37;;;;;;;6.10;4.63;;;;;;;25.57;54.44;100889.22;5022676;28;20049;-35
2023/08/25 04:21:04;;;;;;;7.63;4.78;;;;;;;25.56;54.39;100885.66;5020543;28;20049;-34
2023/08/25 04:23:30;;;;;;;7.57;5.00;;;;;;;25.56;54.34;100874.78;5022561;28;20053;-35
2023/08/25 04:25:57;;;;;;;6.88;5.15;;;;;;;25.56;54.03;100874.78;5021134;28;20089;-35
2023/08/25 04:28:25;;;;;;;6.65;5.07;;;;;;;25.57;54.24;100872.94;5024237;28;20081;-35
2023/08/25 04:30:53;;;;;;;7.97;4.90;;;;;;;25.57;54.44;100872.94;5026278;28;20049;-35
2023/08/25 04:33:20;;;;;;;6.93;4.25;;;;;;;25.58;54.64;100869.19;5028442;28;20341;-34
2023/08/25 04:35:47;;;;;;;6.82;4.50;;;;;;;25.57;54.65;100875.66;5025415;28;20045;-35
2023/08/25 04:38:14;;;;;;;7.88;4.93;;;;;;;25.57;54.30;100868.34;5024370;28;20565;-35
2023/08/25 04:40:40;;;;;;;7.05;4.63;;;;;;;25.56;54.43;100872.06;5026843;28;20414;-34
2023/08/25 04:43:07;;;;;;;5.78;4.45;;;;;;;25.57;54.36;100875.66;5031310;28;20049;-35
2023/08/25 04:45:33;;;;;;;7.15;4.93;;;;;;;25.57;54.06;100872.94;5031105;28;20322;-35
2023/08/25 04:48:00;;;;;;;5.53;4.57;;;;;;;25.56;54.29;100880.22;5023315;28;20049;-35
2023/08/25 04:50:27;;;;;;;6.70;4.38;;;;;;;25.57;54.42;100878.38;5020600;28;20092;-34
2023/08/25 04:52:53;;;;;;;5.65;4.57;;;;;;;25.57;54.26;100881.09;5022575;28;20049;-34
2023/08/25 04:55:20;;;;;;;6.15;4.70;;;;;;;25.57;54.26;100883.78;5028019;28;20433;-35
2023/08/25 04:57:47;;;;;;;5.63;4.43;;;;;;;25.57;54.43;100891.94;5022847;28;20057;-35
2023/08/25 05:00:14;;;;;;;7.57;4.68;;;;;;;25.56;54.39;100880.22;5024142;28;20064;-35
2023/08/25 05:02:41;;;;;;;5.88;4.07;;;;;;;25.57;54.55;100886.50;5024351;28;20053;-35
2023/08/25 05:05:11;;;;;;;7.35;4.82;;;;;;;25.56;54.38;100888.34;5025183;28;20437;-35
2023/08/25 05:07:38;;;;;;;5.78;4.25;;;;;;;25.57;54.36;100886.50;5020762;28;20424;-35
2023/08/25 05:10:05;;;;;;;5.32;4.30;;;;;;;25.57;54.44;100878.38;5024419;28;20147;-34
2023/08/25 05:12:32;;;;;;;6.05;4.75;;;;;;;25.56;54.19;100879.38;5021467;28;20049;-34
2023/08/25 05:14:59;;;;;;;7.00;4.07;;;;;;;25.57;54.22;100878.38;5026800;28;20065;-35
2023/08/25 05:17:25;;;;;;;6.53;4.82;;;;;;;25.56;54.09;100877.50;5025479;28;20045;-34
2023/08/25 05:19:55;;;;;;;6.13;4.50;;;;;;;25.56;53.93;100874.78;5024673;28;20041;-35
2023/08/25 05:22:21;;;;;;;6.95;4.85;;;;;;;25.55;53.98;100875.84;5021568;28;20048;-35
2023/08/25 05:24:48;;;;;;;7.00;4.47;;;;;;;25.57;54.36;100870.22;5025311;28;20435;-34
2023/08/25 05:27:15;;;;;;;5.70;4.20;;;;;;;25.56;54.02;100874.78;5026109;28;20133;-34
2023/08/25 05:29:41;;;;;;;6.57;4.07;;;;;;;25.56;54.15;100882.09;5025387;28;20041;-34
2023/08/25 05:32:08;;;;;;;6.97;4.97;;;;;;;25.57;54.57;100884.63;5024985;28;20449;-34
2023/08/25 05:34:34;;;;;;;5.70;3.92;;;;;;;25.56;54.14;100882.94;5022121;28;20054;-34
2023/08/25 05:37:01;;;;;;;7.07;4.55;;;;;;;25.55;54.07;100875.84;5023701;28;20046;-34
2023/08/25 05:39:28;;;;;;;6.68;4.32;;;;;;;25.56;54.15;100879.38;5027003;28;20049;-34
2023/08/25 05:41:55;;;;;;;5.15;3.92;;;;;;;25.56;54.13;100877.50;5025824;28;20084;-34
2023/08/25 05:44:22;;;;;;;5.25;3.85;;;;;;;25.55;54.26;100870.41;5024052;28;20041;-34
2023/08/25 05:46:49;;;;;;;4.82;3.80;;;;;;;25.56;54.21;100877.50;5030153;28;20136;-34
2023/08/25 05:49:15;;;;;;;6.35;4.22;;;;;;;25.56;53.59;100869.34;5030428;28;20132;-34
2023/08/25 05:51:42;;;;;;;6.18;4.35;;;;;;;25.56;54.11;100863.09;5023457;28;20088;-34
2023/08/25 05:54:10;;;;;;;5.78;4.45;;;;;;;25.56;54.39;100861.22;5026715;28;20159;-34
2023/08/25 05:56:37;;;;;;;5.80;4.28;;;;;;;25.57;54.08;100867.50;5026335;28;20057;-34
2023/08/25 05:59:03;;;;;;;5.72;4.20;;;;;;;25.58;53.86;100866.47;5025301;28;20042;-34
2023/08/25 06:01:30;;;;;;;6.90;4.20;;;;;;;25.58;53.89;100852.88;5031216;28;20053;-34
2023/08/25 06:03:59;;;;;;;5.22;4.10;;;;;;;25.58;53.97;100855.59;5029802;28;20401;-34
2023/08/25 06:06:26;;;;;;;5.93;4.25;;;;;;;25.58;54.15;100855.59;5030946;28;20467;-34
2023/08/25 06:08:54;;;;;;;6.30;4.65;;;;;;;25.59;54.04;100847.25;5028320;28;20050;-34
2023/08/25 06:11:22;;;;;;;6.32;4.45;;;;;;;25.59;54.16;100852.69;5025867;28;20045;-34
2023/08/25 06:13:49;;;;;;;7.05;4.75;;;;;;;25.60;53.97;100854.34;5021444;28;20129;-34
2023/08/25 06:16:15;;;;;;;6.05;4.03;;;;;;;25.60;54.10;100857.06;5029266;28;20045;-35
2023/08/25 06:18:42;;;;;;;6.03;4.32;;;;;;;25.62;53.86;100858.75;5021734;28;20073;-34
2023/08/25 06:21:09;;;;;;;5.88;4.63;;;;;;;25.62;53.94;100865.00;5028160;28;20144;-34
2023/08/25 06:23:36;;;;;;;5.15;3.90;;;;;;;25.63;53.93;100860.41;5026652;28;20053;-35
2023/08/25 06:26:02;;;;;;;6.25;4.22;;;;;;;25.64;53.98;100862.91;5022930;28;20085;-35
2023/08/25 06:28:29;;;;;;;6.55;4.47;;;;;;;25.64;54.18;100859.38;5020954;28;20438;-35
2023/08/25 06:30:55;;;;;;;7.63;4.70;;;;;;;25.65;54.07;100855.59;5024406;28;20045;-35
2023/08/25 06:33:22;;;;;;;5.47;4.25;;;;;;;25.65;53.76;100858.31;5026951;28;20053;-35
2023/08/25 06:35:49;;;;;;;6.38;4.63;;;;;;;25.65;54.01;100861.91;5026338;28;20122;-35
2023/08/25 06:38:15;;;;;;;6.30;3.85;;;;;;;25.67;54.17;100867.09;5026129;28;20441;-35
2023/08/25 06:40:42;;;;;;;7.32;4.80;;;;;;;25.67;54.11;100880.69;5026748;28;20434;-34
2023/08/25 06:43:09;;;;;;;6.57;3.90;;;;;;;25.66;54.14;100873.59;5024959;28;20050;-35
2023/08/25 06:45:36;;;;;;;7.85;4.40;;;;;;;25.67;54.01;100876.09;5031323;28;20046;-35
2023/08/25 06:48:03;;;;;;;6.40;4.45;;;;;;;25.67;54.20;100873.38;5022523;28;20054;-35
2023/08/25 06:50:30;;;;;;;6.50;4.43;;;;;;;25.69;53.70;100879.44;5022892;28;20045;-35
2023/08/25 06:52:57;;;;;;;6.20;4.55;;;;;;;25.70;54.09;100877.56;5024012;28;20054;-35
2023/08/25 06:55:25;;;;;;;5.32;3.88;;;;;;;25.71;54.20;100871.09;5028104;28;20443;-35
2023/08/25 06:57:51;;;;;;;6.90;4.30;;;;;;;25.70;53.86;100875.69;5027276;28;20508;-35
2023/08/25 07:00:18;;;;;;;6.35;4.20;;;;;;;25.71;53.92;100861.06;5025745;28;20394;-35
2023/08/25 07:02:45;;;;;;;5.60;4.28;;;;;;;25.71;54.05;100861.06;5025201;28;20041;-35
2023/08/25 07:05:13;;;;;;;5.97;4.50;;;;;;;25.72;54.22;100845.59;5021336;28;20069;-35
2023/08/25 07:07:39;;;;;;;6.95;4.55;;;;;;;25.72;54.05;100835.59;5028045;28;20052;-35
2023/08/25 07:10:06;;;;;;;7.95;4.50;;;;;;;25.73;54.17;100841.84;5026733;28;20045;-35
2023/08/25 07:12:33;;;;;;;7.72;4.53;;;;;;;25.74;54.13;100847.09;5024210;28;20091;-35
2023/08/25 07:15:00;;;;;;;10.57;5.03;;;;;;;25.75;54.34;100847.91;5028157;28;20442;-35
2023/08/25 07:17:26;;;;;;;7.45;4.70;;;;;;;25.76;54.18;100852.31;5031319;28;20307;-34
2023/08/25 07:19:53;;;;;;;5.15;3.95;;;;;;;25.77;54.22;100852.16;5024256;28;20472;-35
2023/08/25 07:22:20;;;;;;;6.28;4.38;;;;;;;25.78;54.33;100850.25;5025610;28;20050;-35
2023/08/25 07:24:50;;;;;;;7.28;4.60;;;;;;;25.80;54.07;100845.44;5026381;28;20060;-35
2023/08/25 07:27:17;;;;;;;6.47;4.63;;;;;;;25.81;54.44;100839.00;5022800;28;20393;-35
2023/08/25 07:29:44;;;;;;;6.75;5.15;;;;;;;25.82;53.95;100836.06;5024890;28;20053;-35
2023/08/25 07:32:11;;;;;;;5.80;4.55;;;;;;;25.84;54.09;100833.13;5027998;28;20108;-35
2023/08/25 07:34:42;;;;;;;6.03;4.75;;;;;;;25.84;54.25;100825.81;5025446;28;20057;-35
2023/08/25 07:37:08;;;;;;;7.70;5.43;;;;;;;25.86;54.17;100830.22;5020750;28;20081;-35
2023/08/25 07:39:35;;;;;;;7.25;4.78;;;;;;;25.87;53.92;100823.75;5022201;28;20479;-35
2023/08/25 07:42:02;;;;;;;9.27;5.88;;;;;;;25.87;54.22;100827.31;5024922;28;20371;-34
2023/08/25 07:44:28;;;;;;;8.20;5.38;;;;;;;25.88;54.29;100828.13;5026049;28;20320;-35
2023/08/25 07:46:55;;;;;;;7.32;4.85;;;;;;;25.89;54.55;100837.94;5021342;28;20049;-34
2023/08/25 07:49:22;;;;;;;6.60;5.28;;;;;;;25.90;54.01;100848.63;5022781;28;20049;-35
2023/08/25 07:51:48;;;;;;;7.63;5.43;;;;;;;25.90;53.84;100845.06;5029684;28;20045;-34
2023/08/25 07:54:15;;;;;;;8.23;5.25;;;;;;;25.90;54.06;100843.19;5024215;28;20126;-34
2023/08/25 07:56:41;;;;;;;8.20;5.82;;;;;;;25.90;53.95;100843.19;5024458;28;20549;-34
2023/08/25 07:59:08;;;;;;;10.43;5.47;;;;;;;25.90;53.96;100845.91;5021370;28;20128;-34
2023/08/25 08:01:35;;;;;;;8.13;6.18;;;;;;;25.92;54.33;100856.56;5026532;28;20096;-34
2023/08/25 08:04:03;;;;;;;8.35;6.03;;;;;;;25.91;54.38;100850.28;5024340;28;20176;-34
2023/08/25 08:06:33;;;;;;;8.80;6.50;;;;;;;25.94;54.23;100846.34;5027769;28;20053;-34
2023/08/25 08:09:00;;;;;;;9.25;7.15;;;;;;;25.95;54.27;100845.28;5019643;28;20434;-34
2023/08/25 08:11:26;;;;;;;9.82;6.95;;;;;;;25.96;54.32;100844.22;5024124;28;20052;-34
2023/08/25 08:13:53;;;;;;;15.40;7.57;;;;;;;25.97;54.29;100844.03;5022972;28;20049;-34
2023/08/25 08:16:20;;;;;;;11.82;8.05;;;;;;;25.98;54.22;100848.44;5021592;28;20053;-34
2023/08/25 08:18:46;;;;;;;12.88;8.73;;;;;;;25.99;54.53;100849.25;5028902;28;20049;-34
2023/08/25 08:21:13;;;;;;;14.02;9.15;;;;;;;25.99;54.48;100849.25;5027017;28;20041;-34
2023/08/25 08:23:39;;;;;;;16.35;9.40;;;;;;;25.99;54.46;100849.25;5026265;28;20158;-34
2023/08/25 08:26:06;;;;;;;11.55;8.18;;;;;;;25.99;54.29;100847.38;5026371;28;20046;-34
2023/08/25 08:28:33;;;;;;;9.18;7.07;;;;;;;25.99;54.24;100844.66;5024174;28;20073;-34
2023/08/25 08:31:03;;;;;;;11.00;7.20;;;;;;;26.00;54.35;100846.31;5023859;28;20076;-36
2023/08/25 08:33:30;;;;;;;19.52;11.23;;;;;;;26.00;54.53;100840.91;5028502;28;20136;-36
2023/08/25 08:35:57;;;;;;;13.77;9.23;;;;;;;25.99;54.79;100839.22;5025451;28;20069;-36
2023/08/25 08:38:24;;;;;;;13.20;8.60;;;;;;;25.99;54.91;100839.22;5024428;28;20553;-36
2023/08/25 08:40:50;;;;;;;13.73;9.15;;;;;;;26.00;54.84;100848.22;5023290;28;20080;-36
2023/08/25 08:43:18;;;;;;;13.63;8.50;;;;;;;25.99;54.68;100855.53;5021584;28;20151;-35
2023/08/25 08:45:51;;;;;;;12.25;8.50;;;;;;;25.99;54.88;100851.97;5023006;28;20095;-36
2023/08/25 08:48:20;;;;;;;11.15;8.75;;;;;;;25.99;54.92;100857.41;5023019;28;20057;-36
2023/08/25 08:50:48;;;;;;;12.63;8.20;;;;;;;25.99;54.85;100857.41;5021762;28;20041;-36
2023/08/25 08:53:16;;;;;;;9.40;6.97;;;;;;;25.98;54.72;100864.72;5020645;28;20108;-36
2023/08/25 08:55:43;;;;;;;10.18;7.28;;;;;;;25.98;54.99;100864.72;5030539;28;20038;-36
2023/08/25 08:58:10;;;;;;;10.30;7.30;;;;;;;25.97;55.16;100854.91;5025683;28;20049;-36
2023/08/25 09:00:37;;;;;;;9.45;7.50;;;;;;;25.98;54.95;100855.75;5021247;28;20037;-36
2023/08/25 09:03:11;;;;;;;10.02;6.45;;;;;;;25.98;54.70;100872.88;5022804;28;20061;-36
2023/08/25 09:05:39;;;;;;;;;;;;;;;25.98;55.02;100862.00;5025095;28;20092;-36
2023/08/25 09:08:08;;;;;;;10.82;7.00;;;;;;;26.01;54.77;100861.59;5021797;28;19925;-36
2023/08/25 09:10:34;;;;;;;11.55;7.20;;;;;;;26.00;54.81;100865.34;5021944;28;20053;-36
2023/08/25 09:13:02;;;;;;;9.75;6.40;;;;;;;26.00;54.62;100862.63;5037276;28;20046;-36
2023/08/25 09:15:30;;;;;;;8.70;6.05;;;;;;;26.01;54.76;100875.19;5021731;28;20433;-36
2023/08/25 09:18:07;;;;;;;10.75;6.40;;;;;;;26.00;54.73;100873.50;5029345;28;20050;-36
2023/08/25 09:20:41;;;;;;;8.73;5.90;;;;;;;26.01;54.66;100877.91;5027706;28;20134;-36
2023/08/25 09:23:08;;;;;;;10.52;5.90;;;;;;;26.02;54.58;100874.13;5022395;28;20175;-36
2023/08/25 09:25:39;;;;;;;8.25;5.97;;;;;;;26.02;54.64;100879.56;5026742;28;20041;-36
2023/08/25 09:28:05;;;;;;;9.88;6.10;;;;;;;26.03;54.59;100877.69;5028187;28;20144;-36
2023/08/25 09:30:37;;;;;;;8.27;6.18;;;;;;;26.03;54.67;100878.50;5028281;28;20041;-36
2023/08/25 09:33:05;;;;;;;10.95;6.32;;;;;;;26.05;54.52;100878.28;5022832;28;20054;-36
2023/08/25 09:35:32;;;;;;;9.13;6.00;;;;;;;26.06;54.60;100874.56;5025683;28;20380;-36
2023/08/25 09:37:58;;;;;;;12.77;7.15;;;;;;;26.07;54.44;100874.34;5020941;28;20131;-36
2023/08/25 09:40:26;;;;;;;12.05;8.07;;;;;;;26.09;54.53;100875.00;5023028;28;20050;-36
2023/08/25 09:43:01;;;;;;;13.10;8.40;;;;;;;26.08;54.65;100870.56;5028138;28;20421;-37
2023/08/25 09:45:31;;;;;;;18.63;10.20;;;;;;;26.11;54.78;100861.19;5029560;28;20056;-36
2023/08/25 09:48:12;;;;;;;16.90;11.15;;;;;;;26.13;54.88;100864.56;5022364;28;20049;-36
2023/08/25 09:50:44;;;;;;;14.32;10.43;;;;;;;26.16;54.94;100868.72;5027151;28;20380;-36
2023/08/25 09:53:12;;;;;;;14.73;11.05;;;;;;;26.17;54.79;100873.97;5020063;28;20049;-36
2023/08/25 09:55:40;;;;;;;17.75;11.77;;;;;;;26.18;54.67;100870.19;5024860;28;20124;-36
2023/08/25 09:58:09;;;;;;;17.92;11.20;;;;;;;26.19;54.87;100874.56;5017129;28;20045;-36
2023/08/25 10:00:37;;;;;;;17.50;10.68;;;;;;;26.20;55.16;100875.41;5027873;28;20456;-36
2023/08/25 10:03:08;;;;;;;16.52;10.95;;;;;;;26.21;54.92;100871.63;5027682;28;20045;-36
2023/08/25 10:05:41;;;;;;;14.35;11.27;;;;;;;26.22;54.67;100867.91;5023153;28;20046;-36
2023/08/25 10:08:09;;;;;;;14.45;10.15;;;;;;;26.24;54.63;100871.22;5024117;28;20049;-36
2023/08/25 10:10:38;;;;;;;18.98;10.95;;;;;;;26.23;54.82;100866.84;5022211;28;20049;-36
2023/08/25 10:13:07;;;;;;;19.92;11.80;;;;;;;26.23;54.90;100866.84;5022907;28;20089;-36
2023/08/25 10:15:35;;;;;;;14.57;10.68;;;;;;;26.23;54.95;100854.09;5025673;28;20119;-36
2023/08/25 10:18:06;;;;;;;14.93;10.68;;;;;;;26.24;54.67;100865.78;5022112;28;20046;-36
2023/08/25 10:20:34;;;;;;;12.45;9.30;;;;;;;26.24;54.81;100850.31;5024108;28;20092;-37
2023/08/25 10:23:04;;;;;;;15.10;10.70;;;;;;;26.24;54.85;100850.31;5023594;28;20049;-37
2023/08/25 10:25:31;;;;;;;18.63;10.55;;;;;;;26.25;54.78;100849.31;5028928;28;20088;-36
2023/08/25 10:28:03;;;;;;;17.45;10.15;;;;;;;26.26;54.53;100842.81;5027049;28;20053;-36
2023/08/25 10:30:31;;;;;;;15.60;10.75;;;;;;;26.28;54.49;100840.72;5023552;28;20121;-36
2023/08/25 10:33:06;;;;;;;15.10;10.07;;;;;;;26.30;54.48;100838.63;5021854;28;20057;-36
2023/08/25 10:35:54;;;;;;;14.10;10.27;;;;;;;26.32;54.61;100841.13;5030309;28;20057;-36
2023/08/25 10:38:22;;;;;;;14.82;9.80;;;;;;;26.35;54.35;100838.00;5029481;28;20095;-37
2023/08/25 10:40:50;;;;;;;14.02;9.60;;;;;;;26.37;54.47;100833.19;5023668;28;20805;-37
2023/08/25 10:43:27;;;;;;;13.82;9.15;;;;;;;26.38;54.56;100828.59;5025108;28;20049;-36
2023/08/25 10:45:56;;;;;;;17.30;10.80;;;;;;;26.39;54.42;100830.28;5029135;28;20065;-36
2023/08/25 10:48:26;;;;;;;13.38;10.32;;;;;;;26.39;54.50;100841.97;5024723;28;20453;-36
2023/08/25 10:51:36;;;;;;;18.40;9.75;;;;;;;26.39;54.16;100841.16;5027391;28;20143;-36
2023/08/25 10:54:03;;;;;;;15.23;10.75;;;;;;;26.41;54.31;100839.88;5016659;28;20060;-36
2023/08/25 10:56:30;;;;;;;14.32;9.90;;;;;;;26.40;54.41;100838.19;5027621;28;20053;-36
2023/08/25 10:59:04;;;;;;;14.10;9.55;;;;;;;26.41;54.22;100839.88;5024645;28;20054;-36
2023/08/25 11:01:37;;;;;;;15.82;9.15;;;;;;;26.41;54.44;100829.00;5025762;28;20041;-36
2023/08/25 11:04:07;;;;;;;;;;;;;;;26.41;54.34;100834.44;5025449;28;20151;-36
2023/08/25 11:06:46;;;;;;;15.45;10.77;;;;;;;26.45;54.24;100838.44;5028954;28;19928;-36
2023/08/25 11:09:18;;;;;;;15.20;10.20;;;;;;;26.43;54.23;100831.53;5024462;28;20137;-37
2023/08/25 11:11:54;;;;;;;15.18;10.00;;;;;;;26.45;54.23;100840.31;5026983;28;20426;-36
2023/08/25 11:14:27;;;;;;;14.10;8.48;;;;;;;26.45;54.44;100835.72;5024302;28;20052;-36
2023/08/25 11:16:55;;;;;;;15.80;8.02;;;;;;;26.48;54.31;100834.47;5028644;28;20053;-36
2023/08/25 11:19:24;;;;;;;13.77;8.82;;;;;;;26.49;54.13;100837.00;5027781;28;20053;-36
2023/08/25 11:21:59;;;;;;;15.40;9.50;;;;;;;26.49;54.14;100845.16;5024770;28;20429;-36
2023/08/25 11:24:26;;;;;;;14.43;8.80;;;;;;;26.52;54.12;100842.00;5020504;28;20437;-36
2023/08/25 11:26:52;;;;;;;14.25;8.70;;;;;;;26.53;53.46;100843.69;5024350;28;20145;-36